Time;durP1;ratioP1;P1;durP2;ratioP2;P2;SDS_P1;SDS_P2;PMS_P1;PMS_P2;Temp;Humidity;BMP_temperature;BMP_pressure;BME280_temperature;BME280_humidity;BME280_pressure;Samples;Min_cycle;Max_cycle;Signal;HPM_P1;HPM_P2
2022/12/06 00:01:09;;;;;;;;;;;5.40;99.90;;;;;;5065704;28;19920;-74
2022/12/06 00:03:35;;;;;;;;;;;5.40;99.90;;;;;;5066337;28;19920;-74
2022/12/06 00:06:05;;;;;;;;;;;5.40;99.90;;;;;;5063370;28;20302;-74
2022/12/06 00:08:33;;;;;;;;;;;5.30;99.90;;;;;;5065509;28;19999;-74
2022/12/06 00:11:03;;;;;;;;;;;5.10;99.90;;;;;;5061906;28;20039;-74
2022/12/06 00:13:28;;;;;;;;;;;5.30;99.90;;;;;;5064634;28;19925;-74
2022/12/06 00:15:54;;;;;;;;;;;5.30;99.90;;;;;;5062666;28;20018;-74
2022/12/06 00:18:19;;;;;;;;;;;5.30;99.90;;;;;;5063452;28;20004;-74
2022/12/06 00:20:45;;;;;;;;;;;5.30;99.90;;;;;;5064646;28;20024;-74
2022/12/06 00:23:10;;;;;;;;;;;5.20;99.90;;;;;;5062897;28;19921;-74
2022/12/06 00:25:36;;;;;;;;;;;5.20;99.90;;;;;;5066014;28;19928;-74
2022/12/06 00:28:02;;;;;;;;;;;5.20;99.90;;;;;;5061542;28;19927;-73
2022/12/06 00:30:27;;;;;;;;;;;5.10;99.90;;;;;;5065272;28;20327;-74
2022/12/06 00:32:53;;;;;;;;;;;5.10;99.90;;;;;;5059719;28;20011;-74
2022/12/06 00:35:19;;;;;;;;;;;5.10;99.90;;;;;;5063235;28;19928;-74
2022/12/06 00:37:44;;;;;;;;;;;5.10;99.90;;;;;;5062438;28;19925;-74
2022/12/06 00:40:10;;;;;;;;;;;5.10;99.90;;;;;;5064848;28;19928;-74
2022/12/06 00:42:35;;;;;;;;;;;5.10;99.90;;;;;;5061755;28;19927;-74
2022/12/06 00:45:01;;;;;;;;;;;5.10;99.90;;;;;;5061637;28;19927;-74
2022/12/06 00:47:26;;;;;;;;;;;5.10;99.90;;;;;;5065480;28;19921;-74
2022/12/06 00:49:52;;;;;;;;;;;5.20;99.90;;;;;;5063982;28;19980;-74
2022/12/06 00:52:17;;;;;;;;;;;5.20;99.90;;;;;;5064994;28;19963;-74
2022/12/06 00:54:43;;;;;;;;;;;5.20;99.90;;;;;;5063616;28;19920;-74
2022/12/06 00:57:08;;;;;;;;;;;5.20;99.90;;;;;;5060592;28;19974;-74
2022/12/06 00:59:37;;;;;;;;;;;5.20;99.90;;;;;;5065104;28;19924;-74
2022/12/06 01:02:09;;;;;;;;;;;5.20;99.90;;;;;;5061783;28;20372;-74
2022/12/06 01:04:37;;;;;;;;;;;5.40;99.90;;;;;;5064012;28;19931;-74
2022/12/06 01:07:05;;;;;;;;;;;5.20;99.90;;;;;;5061536;28;19928;-74
2022/12/06 01:09:31;;;;;;;;;;;5.20;99.90;;;;;;5064503;28;19920;-74
2022/12/06 01:11:57;;;;;;;;;;;5.00;99.90;;;;;;5059503;28;19920;-74
2022/12/06 01:14:23;;;;;;;;;;;5.20;99.90;;;;;;5064829;28;19943;-74
2022/12/06 01:16:49;;;;;;;;;;;5.20;99.90;;;;;;5060095;28;19928;-74
2022/12/06 01:19:14;;;;;;;;;;;6.60;99.90;;;;;;5063028;28;20370;-74
2022/12/06 01:21:40;;;;;;;;;;;5.10;99.90;;;;;;5067731;28;19927;-74
2022/12/06 01:24:06;;;;;;;;;;;5.10;99.90;;;;;;5060470;28;19924;-74
2022/12/06 01:26:32;;;;;;;;;;;5.10;99.90;;;;;;5064441;28;19916;-74
2022/12/06 01:28:58;;;;;;;;;;;5.10;99.90;;;;;;5063035;28;20005;-74
2022/12/06 01:31:24;;;;;;;;;;;5.10;99.90;;;;;;5060147;28;19979;-75
2022/12/06 01:33:52;;;;;;;;;;;5.10;99.90;;;;;;5063952;28;19956;-75
2022/12/06 01:36:19;;;;;;;;;;;5.00;99.90;;;;;;5061757;28;19920;-75
2022/12/06 01:38:48;;;;;;;;;;;5.00;99.90;;;;;;5062946;28;19998;-75
2022/12/06 01:41:14;;;;;;;;;;;5.00;99.90;;;;;;5061020;28;19924;-75
2022/12/06 01:43:41;;;;;;;;;;;5.70;99.90;;;;;;5063293;28;20280;-75
2022/12/06 01:46:25;;;;;;;;;;;5.00;99.90;;;;;;5061223;28;20393;-74
2022/12/06 01:48:52;;;;;;;;;;;5.00;99.90;;;;;;5060654;28;19921;-75
2022/12/06 01:51:18;;;;;;;;;;;5.00;99.90;;;;;;5064277;28;20025;-75
2022/12/06 01:53:45;;;;;;;;;;;5.00;99.90;;;;;;5076352;28;19987;-75
2022/12/06 01:56:11;;;;;;;;;;;5.00;99.90;;;;;;5063501;28;19917;-74
2022/12/06 01:58:38;;;;;;;;;;;5.00;99.90;;;;;;5061985;28;19927;-74
2022/12/06 02:01:03;;;;;;;;;;;5.00;99.90;;;;;;5061548;28;19920;-74
2022/12/06 02:03:30;;;;;;;;;;;4.90;99.90;;;;;;5062936;28;19924;-75
2022/12/06 02:06:01;;;;;;;;;;;4.90;99.90;;;;;;5059915;28;20003;-74
2022/12/06 02:08:26;;;;;;;;;;;7.00;99.90;;;;;;5063369;28;19920;-75
2022/12/06 02:10:56;;;;;;;;;;;5.00;99.90;;;;;;5063286;28;19990;-75
2022/12/06 02:13:22;;;;;;;;;;;4.90;99.90;;;;;;5079175;28;20375;-75
2022/12/06 02:16:00;;;;;;;;;;;4.90;99.90;;;;;;5062718;28;19944;-75
2022/12/06 02:18:25;;;;;;;;;;;4.90;99.90;;;;;;5061928;28;19971;-73
2022/12/06 02:20:53;;;;;;;;;;;5.00;99.90;;;;;;5062562;28;19968;-74
2022/12/06 02:23:37;;;;;;;;;;;4.90;99.90;;;;;;5059865;28;19927;-74
2022/12/06 02:26:14;;;;;;;;;;;4.90;99.90;;;;;;5060865;28;19927;-73
2022/12/06 02:29:00;;;;;;;;;;;4.90;99.90;;;;;;5060500;28;19995;-74
2022/12/06 02:31:28;;;;;;;;;;;4.90;99.90;;;;;;5061725;28;19921;-74
2022/12/06 02:34:10;;;;;;;;;;;4.90;99.90;;;;;;5060978;28;19962;-75
2022/12/06 02:36:57;;;;;;;;;;;4.90;99.90;;;;;;5061317;28;19925;-74
2022/12/06 02:39:26;;;;;;;;;;;4.90;99.90;;;;;;5061533;28;19921;-74
2022/12/06 02:42:08;;;;;;;;;;;4.80;99.90;;;;;;5061412;28;19920;-74
2022/12/06 02:44:36;;;;;;;;;;;4.90;99.90;;;;;;5062378;28;21480;-74
2022/12/06 02:47:04;;;;;;;;;;;4.90;99.90;;;;;;5062400;28;20012;-74
2022/12/06 02:49:31;;;;;;;;;;;5.00;99.90;;;;;;5060799;28;19920;-74
2022/12/06 02:51:56;;;;;;;;;;;4.90;99.90;;;;;;5061833;28;19928;-74
2022/12/06 02:54:23;;;;;;;;;;;4.90;99.90;;;;;;5061799;28;19921;-74
2022/12/06 02:56:48;;;;;;;;;;;4.90;99.90;;;;;;5059183;28;20054;-74
2022/12/06 02:59:14;;;;;;;;;;;4.90;99.90;;;;;;5062545;28;20015;-74
2022/12/06 03:01:46;;;;;;;;;;;4.90;99.90;;;;;;5060137;28;19929;-74
2022/12/06 03:04:33;;;;;;;;;;;7.10;99.90;;;;;;5059286;28;20002;-74
2022/12/06 03:07:17;;;;;;;;;;;4.90;99.90;;;;;;5066041;28;19921;-74
2022/12/06 03:09:51;;;;;;;;;;;4.90;99.90;;;;;;5063299;28;19921;-73
2022/12/06 03:12:19;;;;;;;;;;;5.00;99.90;;;;;;5060847;28;19920;-73
2022/12/06 03:14:53;;;;;;;;;;;5.00;99.90;;;;;;5060953;28;20328;-74
2022/12/06 03:17:39;;;;;;;;;;;5.30;99.90;;;;;;5059781;28;19920;-74
2022/12/06 03:20:07;;;;;;;;;;;5.10;99.90;;;;;;5059555;28;19924;-74
2022/12/06 03:22:36;;;;;;;;;;;5.10;99.90;;;;;;5063169;28;19965;-73
2022/12/06 03:25:03;;;;;;;;;;;5.00;99.90;;;;;;5061862;28;19961;-73
2022/12/06 03:27:29;;;;;;;;;;;5.10;99.90;;;;;;5060641;28;19921;-73
2022/12/06 03:29:57;;;;;;;;;;;5.00;99.90;;;;;;5062273;28;19916;-74
2022/12/06 03:32:43;;;;;;;;;;;5.00;99.90;;;;;;5058875;28;19966;-74
2022/12/06 03:35:10;;;;;;;;;;;5.10;99.90;;;;;;5063148;28;20325;-74
2022/12/06 03:37:38;;;;;;;;;;;5.00;99.90;;;;;;5063012;28;19928;-74
2022/12/06 03:40:10;;;;;;;;;;;5.00;99.90;;;;;;5066858;28;19924;-74
2022/12/06 03:42:36;;;;;;;;;;;5.00;99.90;;;;;;5063302;28;19921;-74
2022/12/06 03:45:02;;;;;;;;;;;7.20;99.90;;;;;;5062739;28;19921;-74
2022/12/06 03:47:30;;;;;;;;;;;5.00;99.90;;;;;;5066357;28;19924;-74
2022/12/06 03:49:58;;;;;;;;;;;4.90;99.90;;;;;;5063275;28;19921;-74
2022/12/06 03:52:26;;;;;;;;;;;4.90;99.90;;;;;;5063955;28;19924;-73
2022/12/06 03:54:52;;;;;;;;;;;5.00;99.90;;;;;;5062798;28;20438;-74
2022/12/06 03:57:17;;;;;;;;;;;4.90;99.90;;;;;;5064345;28;19924;-74
2022/12/06 03:59:43;;;;;;;;;;;4.90;99.90;;;;;;5063201;28;19943;-74
2022/12/06 04:02:08;;;;;;;;;;;4.90;99.90;;;;;;5063494;28;19921;-74
2022/12/06 04:04:34;;;;;;;;;;;4.90;99.90;;;;;;5066622;28;20454;-74
2022/12/06 04:06:59;;;;;;;;;;;4.90;99.90;;;;;;5065943;28;19935;-74
2022/12/06 04:15:07;;;;;;;;;;;4.80;99.90;;;;;;5046041;28;20438;-74
2022/12/06 04:20:17;;;;;;;;;;;4.80;99.90;;;;;;5062937;28;20275;-74
2022/12/06 04:25:26;;;;;;;;;;;6.30;99.90;;;;;;5094938;28;19920;-74
2022/12/06 04:38:51;;;;;;;;;;;5.00;99.90;;;;;;5060935;28;19920;-74
2022/12/06 04:44:02;;;;;;;;;;;5.00;99.90;;;;;;5061879;28;20011;-74
2022/12/06 04:46:27;;;;;;;;;;;5.00;99.90;;;;;;5064776;28;19966;-75
2022/12/06 04:48:53;;;;;;;;;;;5.00;99.90;;;;;;5060735;28;19920;-74
2022/12/06 04:51:19;;;;;;;;;;;4.90;99.90;;;;;;5061947;28;19927;-74
2022/12/06 04:53:45;;;;;;;;;;;4.90;99.90;;;;;;5065712;28;19931;-75
2022/12/06 04:56:10;;;;;;;;;;;4.90;99.90;;;;;;5063603;28;19943;-75
2022/12/06 04:58:36;;;;;;;;;;;4.90;99.90;;;;;;5063421;28;20415;-75
2022/12/06 05:01:01;;;;;;;;;;;4.80;99.90;;;;;;5063064;28;19943;-74
2022/12/06 05:03:27;;;;;;;;;;;4.70;99.90;;;;;;5063510;28;20287;-74
2022/12/06 05:05:52;;;;;;;;;;;4.60;99.90;;;;;;5068327;28;19924;-74
2022/12/06 05:08:18;;;;;;;;;;;4.40;99.90;;;;;;5059522;28;20027;-74
2022/12/06 05:10:47;;;;;;;;;;;4.30;99.90;;;;;;5064146;28;19922;-74
2022/12/06 05:13:13;;;;;;;;;;;4.20;99.90;;;;;;5061337;28;19920;-74
2022/12/06 05:15:39;;;;;;;;;;;4.10;99.90;;;;;;5064403;28;20440;-74
2022/12/06 05:18:05;;;;;;;;;;;3.90;99.90;;;;;;5061498;28;20418;-74
2022/12/06 05:20:30;;;;;;;;;;;3.90;99.90;;;;;;5063445;28;19975;-74
2022/12/06 05:22:56;;;;;;;;;;;3.80;99.90;;;;;;5062417;28;19924;-74
2022/12/06 05:25:21;;;;;;;;;;;3.70;99.90;;;;;;5062143;28;20005;-74
2022/12/06 05:27:47;;;;;;;;;;;3.60;99.90;;;;;;5063423;28;20290;-74
2022/12/06 05:30:12;;;;;;;;;;;3.50;99.90;;;;;;5060024;28;19928;-74
2022/12/06 05:32:38;;;;;;;;;;;3.40;99.90;;;;;;5063938;28;19938;-74
2022/12/06 05:35:04;;;;;;;;;;;3.40;99.90;;;;;;5061920;28;19931;-74
2022/12/06 05:37:30;;;;;;;;;;;3.30;99.90;;;;;;5062617;28;19931;-74
2022/12/06 05:39:55;;;;;;;;;;;3.20;99.90;;;;;;5062703;28;19943;-75
2022/12/06 05:42:21;;;;;;;;;;;3.10;99.90;;;;;;5061192;28;19921;-80
2022/12/06 05:44:46;;;;;;;;;;;3.00;99.90;;;;;;5060386;28;19917;-73
2022/12/06 05:47:12;;;;;;;;;;;2.90;99.90;;;;;;5063715;28;20406;-79
2022/12/06 05:49:37;;;;;;;;;;;2.90;99.90;;;;;;5061664;28;20390;-75
2022/12/06 05:52:03;;;;;;;;;;;2.80;99.90;;;;;;5060949;28;19979;-73
2022/12/06 05:54:28;;;;;;;;;;;2.70;99.90;;;;;;5059928;28;20011;-83
2022/12/06 05:56:54;;;;;;;;;;;2.70;99.90;;;;;;5061507;28;19966;-86
2022/12/06 05:59:19;;;;;;;;;;;2.60;99.90;;;;;;5058837;28;20308;-79
2022/12/06 06:01:45;;;;;;;;;;;2.60;99.90;;;;;;5078834;28;19924;-77
2022/12/06 06:04:10;;;;;;;;;;;3.20;99.90;;;;;;5060549;28;19920;-76
2022/12/06 06:09:26;;;;;;;;;;;2.50;99.90;;;;;;5062760;28;20260;-81
2022/12/06 06:11:52;;;;;;;;;;;2.50;99.90;;;;;;5061995;28;19935;-79
2022/12/06 06:14:20;;;;;;;;;;;2.40;99.90;;;;;;5061240;28;20387;-77
2022/12/06 06:16:46;;;;;;;;;;;2.40;99.90;;;;;;5062710;28;19923;-79
2022/12/06 06:19:12;;;;;;;;;;;2.30;99.90;;;;;;5060354;28;19937;-73
2022/12/06 06:21:37;;;;;;;;;;;2.30;99.90;;;;;;5063777;28;19921;-73
2022/12/06 06:24:03;;;;;;;;;;;2.30;99.90;;;;;;5059898;28;19924;-72
2022/12/06 06:26:29;;;;;;;;;;;2.30;99.90;;;;;;5062950;28;20364;-71
2022/12/06 06:28:54;;;;;;;;;;;2.40;99.90;;;;;;5060927;28;19924;-71
2022/12/06 06:31:20;;;;;;;;;;;2.40;99.90;;;;;;5060878;28;20281;-71
2022/12/06 06:33:45;;;;;;;;;;;3.30;99.90;;;;;;5061162;28;19966;-73
2022/12/06 06:36:11;;;;;;;;;;;2.50;99.90;;;;;;5060974;28;19982;-76
2022/12/06 06:38:36;;;;;;;;;;;2.50;99.90;;;;;;5063431;28;19966;-81
2022/12/06 06:41:02;;;;;;;;;;;2.50;99.90;;;;;;5058341;28;20384;-82
2022/12/06 06:43:29;;;;;;;;;;;3.10;99.90;;;;;;5062853;28;19956;-84
2022/12/06 06:45:55;;;;;;;;;;;2.50;99.90;;;;;;5061332;28;19928;-81
2022/12/06 06:48:22;;;;;;;;;;;2.60;99.90;;;;;;5058895;28;19924;-81
2022/12/06 06:50:48;;;;;;;;;;;2.60;99.90;;;;;;5060467;28;19917;-78
2022/12/06 06:53:16;;;;;;;;;;;2.60;99.90;;;;;;5059927;28;20436;-78
2022/12/06 06:55:48;;;;;;;;;;;2.60;99.90;;;;;;5056938;28;19928;-77
2022/12/06 06:58:16;;;;;;;;;;;2.70;99.90;;;;;;5058249;28;19955;-77
2022/12/06 07:00:42;;;;;;;;;;;2.80;99.90;;;;;;5058103;28;19956;-77
2022/12/06 07:03:14;;;;;;;;;;;2.90;99.90;;;;;;5059254;28;20333;-75
2022/12/06 07:05:42;;;;;;;;;;;2.90;99.90;;;;;;5060771;28;20308;-80
2022/12/06 07:08:08;;;;;;;;;;;2.90;99.90;;;;;;5059368;28;19921;-80
2022/12/06 07:10:33;;;;;;;;;;;3.30;99.90;;;;;;5064429;28;20383;-79
2022/12/06 07:12:59;;;;;;;;;;;2.90;99.90;;;;;;5067420;28;19927;-79
2022/12/06 07:15:24;;;;;;;;;;;2.90;99.90;;;;;;5066215;28;19977;-79
2022/12/06 07:17:50;;;;;;;;;;;3.00;99.90;;;;;;5064090;28;19921;-79
2022/12/06 07:20:17;;;;;;;;;;;3.00;99.90;;;;;;5064865;28;19928;-79
2022/12/06 07:22:45;;;;;;;;;;;3.10;99.90;;;;;;5061218;28;20055;-80
2022/12/06 07:25:12;;;;;;;;;;;3.10;99.90;;;;;;5068705;28;19938;-80
2022/12/06 07:27:38;;;;;;;;;;;3.20;99.90;;;;;;5065406;28;20296;-80
2022/12/06 07:30:04;;;;;;;;;;;3.20;99.90;;;;;;5063861;28;19927;-80
2022/12/06 07:32:34;;;;;;;;;;;3.30;99.90;;;;;;5066609;28;19920;-80
2022/12/06 07:34:59;;;;;;;;;;;3.30;99.90;;;;;;5061346;28;19920;-78
2022/12/06 07:37:25;;;;;;;;;;;3.30;99.90;;;;;;5067254;28;19942;-78
2022/12/06 07:39:50;;;;;;;;;;;3.30;99.90;;;;;;5062591;28;19920;-78
2022/12/06 07:45:06;;;;;;;;;;;3.40;99.90;;;;;;5064165;28;19921;-79
2022/12/06 07:47:32;;;;;;;;;;;5.60;99.90;;;;;;5065895;28;19920;-79
2022/12/06 07:49:58;;;;;;;;;;;3.50;99.90;;;;;;5063730;28;19921;-79
2022/12/06 07:52:23;;;;;;;;;;;3.50;99.90;;;;;;5065216;28;19943;-79
2022/12/06 07:54:49;;;;;;;;;;;3.50;99.90;;;;;;5063137;28;20406;-79
2022/12/06 07:57:14;;;;;;;;;;;3.50;99.90;;;;;;5066992;28;19924;-79
2022/12/06 07:59:40;;;;;;;;;;;3.60;99.90;;;;;;5062289;28;20359;-79
2022/12/06 08:02:15;;;;;;;;;;;3.60;99.90;;;;;;5065155;28;20464;-79
2022/12/06 08:04:40;;;;;;;;;;;3.60;99.90;;;;;;5061915;28;19928;-78
2022/12/06 08:07:06;;;;;;;;;;;3.70;99.90;;;;;;5064051;28;19973;-79
2022/12/06 08:09:32;;;;;;;;;;;3.70;99.90;;;;;;5062828;28;20329;-77
2022/12/06 08:12:00;;;;;;;;;;;3.80;99.90;;;;;;5063810;28;19920;-77
2022/12/06 08:14:29;;;;;;;;;;;3.80;99.90;;;;;;5063804;28;19920;-77
2022/12/06 08:16:54;;;;;;;;;;;3.80;99.90;;;;;;5065191;28;19977;-78
2022/12/06 08:19:20;;;;;;;;;;;3.80;99.90;;;;;;5060495;28;19916;-78
2022/12/06 08:21:45;;;;;;;;;;;3.90;99.90;;;;;;5068395;28;19944;-79
2022/12/06 08:24:11;;;;;;;;;;;3.90;99.90;;;;;;5066287;28;20073;-78
2022/12/06 08:26:36;;;;;;;;;;;3.90;99.90;;;;;;5062502;28;19924;-78
2022/12/06 08:29:02;;;;;;;;;;;5.70;99.90;;;;;;5063091;28;19920;-78
2022/12/06 08:31:29;;;;;;;;;;;4.00;99.90;;;;;;5066272;28;19970;-78
2022/12/06 08:33:55;;;;;;;;;;;4.10;99.90;;;;;;5062742;28;19931;-78
2022/12/06 08:36:22;;;;;;;;;;;4.10;99.90;;;;;;5063974;28;19920;-78
2022/12/06 08:38:48;;;;;;;;;;;4.20;99.90;;;;;;5061223;28;19920;-78
2022/12/06 08:43:58;;;;;;;;;;;4.40;99.90;;;;;;5094194;28;19921;-79
2022/12/06 08:46:24;;;;;;;;;;;5.20;99.90;;;;;;5063468;28;20330;-79
2022/12/06 08:48:50;;;;;;;;;;;7.10;99.90;;;;;;5062492;28;19935;-79
2022/12/06 08:51:15;;;;;;;;;;;10.00;99.90;;;;;;5065463;28;19920;-79
2022/12/06 08:53:41;;;;;;;;;;;9.30;99.90;;;;;;5062011;28;19924;-76
2022/12/06 08:56:06;;;;;;;;;;;10.50;99.90;;;;;;5063162;28;19970;-77
2022/12/06 08:58:32;;;;;;;;;;;11.70;99.90;;;;;;5062969;28;19924;-77
2022/12/06 09:00:57;;;;;;;;;;;12.60;99.90;;;;;;5062697;28;20429;-77
2022/12/06 09:03:29;;;;;;;;;;;13.20;99.90;;;;;;5063899;28;19947;-78
2022/12/06 09:05:54;;;;;;;;;;;13.20;99.90;;;;;;5063576;28;19924;-77
2022/12/06 09:08:20;;;;;;;;;;;12.20;99.90;;;;;;5063122;28;19927;-77
2022/12/06 09:10:48;;;;;;;;;;;11.80;99.90;;;;;;5064082;28;19916;-77
2022/12/06 09:13:14;;;;;;;;;;;11.40;99.90;;;;;;5062569;28;19924;-77
2022/12/06 09:15:39;;;;;;;;;;;9.90;99.90;;;;;;5064580;28;19921;-77
2022/12/06 09:18:05;;;;;;;;;;;9.40;99.90;;;;;;5061898;28;20155;-77
2022/12/06 09:20:30;;;;;;;;;;;8.90;99.90;;;;;;5064262;28;19952;-77
2022/12/06 09:22:56;;;;;;;;;;;8.40;99.90;;;;;;5060182;28;19970;-77
2022/12/06 09:25:21;;;;;;;;;;;8.60;99.90;;;;;;5063345;28;19946;-77
2022/12/06 09:27:47;;;;;;;;;;;8.00;99.90;;;;;;5063365;28;20295;-77
2022/12/06 09:30:13;;;;;;;;;;;7.70;99.90;;;;;;5060032;28;19920;-77
2022/12/06 09:32:42;;;;;;;;;;;7.50;99.90;;;;;;5068206;28;19927;-78
2022/12/06 09:35:10;;;;;;;;;;;7.50;99.90;;;;;;5060818;28;19920;-77
2022/12/06 09:37:36;;;;;;;;;;;8.10;99.90;;;;;;5062653;28;20386;-78
2022/12/06 09:40:10;;;;;;;;;;;9.30;99.90;;;;;;5060451;28;19925;-78
2022/12/06 09:42:53;;;;;;;;;;;10.50;99.90;;;;;;5060180;28;19921;-78
2022/12/06 09:45:28;;;;;;;;;;;10.70;99.90;;;;;;5060928;28;19921;-77
2022/12/06 09:48:13;;;;;;;;;;;10.30;99.90;;;;;;5063703;28;19931;-77
2022/12/06 09:50:39;;;;;;;;;;;9.90;99.90;;;;;;5052343;28;20394;-76
2022/12/06 09:53:05;;;;;;;;;;;10.10;99.90;;;;;;5061758;28;19972;-77
2022/12/06 09:55:30;;;;;;;;;;;10.50;99.90;;;;;;5064094;28;20338;-77
2022/12/06 09:58:01;;;;;;;;;;;10.60;99.90;;;;;;5067163;28;19974;-77
2022/12/06 10:00:31;;;;;;;;;;;10.60;99.90;;;;;;5059714;28;19927;-76
2022/12/06 10:03:04;;;;;;;;;;;10.50;99.90;;;;;;5060819;28;20007;-77
2022/12/06 10:05:42;;;;;;;;;;;10.40;99.90;;;;;;5059819;28;20347;-77
2022/12/06 10:08:26;;;;;;;;;;;9.60;99.90;;;;;;5061481;28;19928;-78
2022/12/06 10:10:51;;;;;;;;;;;10.10;99.90;;;;;;5060714;28;20372;-78
2022/12/06 10:13:23;;;;;;;;;;;11.80;99.90;;;;;;5062260;28;19920;-77
2022/12/06 10:15:55;;;;;;;;;;;13.20;99.90;;;;;;5061377;28;20000;-77
2022/12/06 10:18:29;;;;;;;;;;;14.00;99.90;;;;;;5063416;28;19966;-77
2022/12/06 10:21:15;;;;;;;;;;;15.50;99.90;;;;;;5061469;28;19924;-77
2022/12/06 10:23:53;;;;;;;;;;;15.90;99.90;;;;;;5062460;28;19925;-77
2022/12/06 10:26:31;;;;;;;;;;;16.40;99.60;;;;;;5076643;28;19924;-77
2022/12/06 10:29:10;;;;;;;;;;;16.90;99.90;;;;;;5060724;28;19921;-77
2022/12/06 10:31:47;;;;;;;;;;;17.40;97.40;;;;;;5062499;28;20330;-77
2022/12/06 10:34:25;;;;;;;;;;;17.90;96.20;;;;;;5064475;28;19928;-77
2022/12/06 10:36:53;;;;;;;;;;;18.60;96.90;;;;;;5062466;28;19920;-78
2022/12/06 10:39:26;;;;;;;;;;;18.30;95.60;;;;;;5061958;28;19920;-77
2022/12/06 10:42:05;;;;;;;;;;;17.00;95.80;;;;;;5060184;28;20380;-77
2022/12/06 10:44:38;;;;;;;;;;;15.50;97.70;;;;;;5064331;28;20338;-77
2022/12/06 10:47:08;;;;;;;;;;;14.20;99.90;;;;;;5065786;28;19927;-77
2022/12/06 10:49:40;;;;;;;;;;;13.20;99.90;;;;;;5065276;28;20327;-77
2022/12/06 10:52:21;;;;;;;;;;;12.10;99.90;;;;;;5066175;28;19986;-77
2022/12/06 10:54:47;;;;;;;;;;;11.60;99.90;;;;;;5065262;28;19921;-77
2022/12/06 10:57:16;;;;;;;;;;;11.10;99.90;;;;;;5065876;28;19974;-77
2022/12/06 10:59:47;;;;;;;;;;;10.70;99.90;;;;;;5065841;28;19924;-77
2022/12/06 11:02:31;;;;;;;;;;;10.50;99.90;;;;;;5066305;28;20375;-77
2022/12/06 11:05:07;;;;;;;;;;;10.10;99.90;;;;;;5062261;28;19921;-78
2022/12/06 11:07:36;;;;;;;;;;;9.90;99.90;;;;;;5063400;28;19939;-77
2022/12/06 11:10:13;;;;;;;;;;;9.70;99.90;;;;;;5064260;28;19927;-78
2022/12/06 11:12:39;;;;;;;;;;;9.60;99.90;;;;;;5064484;28;20386;-78
2022/12/06 11:15:07;;;;;;;;;;;9.50;99.90;;;;;;5059558;28;19924;-78
2022/12/06 11:17:38;;;;;;;;;;;9.20;99.90;;;;;;5059156;28;20330;-77
2022/12/06 11:20:13;;;;;;;;;;;9.10;99.90;;;;;;5053558;28;19966;-78
2022/12/06 11:22:44;;;;;;;;;;;9.00;99.90;;;;;;5059211;28;19935;-78
2022/12/06 11:25:31;;;;;;;;;;;9.10;99.90;;;;;;5059067;28;20433;-78
2022/12/06 11:28:14;;;;;;;;;;;9.10;99.90;;;;;;5061792;28;19927;-78
2022/12/06 11:30:40;;;;;;;;;;;9.00;99.90;;;;;;5055048;28;20390;-78
2022/12/06 11:33:05;;;;;;;;;;;9.10;99.90;;;;;;5054793;28;19924;-78
2022/12/06 11:35:31;;;;;;;;;;;9.20;99.90;;;;;;5054886;28;19921;-79
2022/12/06 11:37:59;;;;;;;;;;;9.10;99.90;;;;;;5053963;28;19967;-79
2022/12/06 11:40:26;;;;;;;;;;;8.80;99.90;;;;;;5055545;28;19916;-79
2022/12/06 11:42:52;;;;;;;;;;;9.50;99.90;;;;;;5058182;28;19921;-78
2022/12/06 11:45:23;;;;;;;;;;;9.50;99.90;;;;;;5055502;28;20299;-79
2022/12/06 11:47:51;;;;;;;;;;;8.70;99.90;;;;;;5061094;28;20372;-78
2022/12/06 11:50:20;;;;;;;;;;;9.20;99.90;;;;;;5053267;28;19928;-78
2022/12/06 11:53:20;;;;;;;;;;;8.40;99.90;;;;;;5054872;28;19925;-78
2022/12/06 11:55:49;;;;;;;;;;;8.40;99.90;;;;;;5025122;28;19920;-78
2022/12/06 11:58:31;;;;;;;;;;;8.60;99.90;;;;;;5057001;28;19924;-78
2022/12/06 12:00:57;;;;;;;;;;;8.10;99.90;;;;;;5058471;28;19916;-78
2022/12/06 12:03:27;;;;;;;;;;;8.20;99.90;;;;;;5054592;28;20011;-78
2022/12/06 12:06:05;;;;;;;;;;;8.10;99.90;;;;;;5057155;28;20384;-77
2022/12/06 12:08:30;;;;;;;;;;;9.50;99.90;;;;;;5057241;28;19935;-78
2022/12/06 12:11:00;;;;;;;;;;;8.10;99.90;;;;;;5057772;28;19921;-78
2022/12/06 12:13:44;;;;;;;;;;;8.10;99.90;;;;;;5054811;28;19960;-78
2022/12/06 12:16:09;;;;;;;;;;;8.10;99.90;;;;;;5054408;28;19928;-77
2022/12/06 12:18:36;;;;;;;;;;;8.90;99.90;;;;;;5053908;28;19925;-78
2022/12/06 12:21:03;;;;;;;;;;;8.10;99.90;;;;;;5066399;28;19964;-78
2022/12/06 12:23:29;;;;;;;;;;;8.10;99.90;;;;;;5061036;28;19939;-79
2022/12/06 12:25:59;;;;;;;;;;;8.10;99.90;;;;;;5061523;28;20371;-79
2022/12/06 12:28:25;;;;;;;;;;;8.10;99.90;;;;;;5063656;28;19956;-79
2022/12/06 12:30:52;;;;;;;;;;;8.10;99.90;;;;;;5064301;28;19920;-82
2022/12/06 12:33:19;;;;;;;;;;;8.10;99.90;;;;;;5063667;28;19928;-86
2022/12/06 12:35:46;;;;;;;;;;;8.00;99.90;;;;;;5058370;28;20709;-82
2022/12/06 12:38:19;;;;;;;;;;;9.10;99.90;;;;;;5059315;28;19935;-79
2022/12/06 12:40:44;;;;;;;;;;;8.00;99.90;;;;;;5062014;28;19927;-84
2022/12/06 12:43:10;;;;;;;;;;;7.90;99.90;;;;;;5064987;28;19920;-86
2022/12/06 12:45:36;;;;;;;;;;;7.90;99.90;;;;;;5077388;28;19920;-82
2022/12/06 12:48:03;;;;;;;;;;;7.80;99.90;;;;;;5055485;28;19929;-86
2022/12/06 12:50:30;;;;;;;;;;;7.80;99.90;;;;;;5065394;28;20302;-82
2022/12/06 12:52:55;;;;;;;;;;;8.30;99.90;;;;;;5060143;28;19925;-84
2022/12/06 12:55:25;;;;;;;;;;;7.90;99.90;;;;;;5063693;28;19920;-81
2022/12/06 12:57:52;;;;;;;;;;;7.90;99.90;;;;;;5052553;28;19955;-79
2022/12/06 13:00:17;;;;;;;;;;;7.80;99.90;;;;;;5058739;28;19921;-79
2022/12/06 13:02:47;;;;;;;;;;;7.80;99.90;;;;;;5062377;28;19927;-86
2022/12/06 13:05:17;;;;;;;;;;;7.80;99.90;;;;;;5060447;28;19936;-84
2022/12/06 13:07:44;;;;;;;;;;;7.80;99.90;;;;;;5058197;28;19920;-82
2022/12/06 13:10:19;;;;;;;;;;;7.70;99.90;;;;;;5059431;28;20360;-82
2022/12/06 13:12:47;;;;;;;;;;;7.60;99.90;;;;;;5063673;28;19920;-79
2022/12/06 13:15:13;;;;;;;;;;;7.70;99.90;;;;;;5059529;28;19920;-78
2022/12/06 13:17:41;;;;;;;;;;;7.70;99.90;;;;;;5059216;28;19978;-82
2022/12/06 13:20:27;;;;;;;;;;;7.90;99.90;;;;;;5061679;28;19920;-82
2022/12/06 13:22:54;;;;;;;;;;;7.50;99.90;;;;;;5063139;28;19967;-83
2022/12/06 13:25:19;;;;;;;;;;;8.00;99.90;;;;;;5081370;28;20390;-81
2022/12/06 13:27:53;;;;;;;;;;;7.40;99.90;;;;;;5065687;28;19929;-80
2022/12/06 13:30:20;;;;;;;;;;;7.40;99.90;;;;;;5063032;28;20299;-80
2022/12/06 13:32:48;;;;;;;;;;;7.30;99.90;;;;;;5064661;28;20019;-79
2022/12/06 13:35:28;;;;;;;;;;;7.30;99.90;;;;;;5064140;28;19960;-79
2022/12/06 13:37:56;;;;;;;;;;;7.30;99.90;;;;;;5064853;28;19920;-79
2022/12/06 13:40:34;;;;;;;;;;;7.30;99.90;;;;;;5060697;28;19920;-74
2022/12/06 13:43:00;;;;;;;;;;;7.30;99.90;;;;;;5059902;28;19944;-76
2022/12/06 13:45:41;;;;;;;;;;;7.30;99.90;;;;;;5068822;28;20375;-77
2022/12/06 13:48:22;;;;;;;;;;;7.30;99.90;;;;;;5065972;28;19916;-78
2022/12/06 13:50:49;;;;;;;;;;;7.30;99.90;;;;;;5059172;28;20019;-74
2022/12/06 13:53:15;;;;;;;;;;;7.40;99.90;;;;;;5061951;28;19980;-73
2022/12/06 13:55:40;;;;;;;;;;;8.30;99.90;;;;;;5063101;28;19952;-72
2022/12/06 13:58:06;;;;;;;;;;;7.70;99.90;;;;;;5061112;28;19921;-75
2022/12/06 14:00:33;;;;;;;;;;;8.10;99.90;;;;;;5062273;28;20016;-73
2022/12/06 14:03:22;;;;;;;;;;;7.30;99.90;;;;;;5062450;28;19921;-74
2022/12/06 14:05:56;;;;;;;;;;;7.20;99.90;;;;;;5058774;28;20498;-78
2022/12/06 14:08:25;;;;;;;;;;;7.10;99.90;;;;;;5059531;28;19928;-76
2022/12/06 14:10:50;;;;;;;;;;;7.10;99.90;;;;;;5064152;28;19921;-78
2022/12/06 14:13:17;;;;;;;;;;;7.50;99.90;;;;;;5057837;28;19934;-75
2022/12/06 14:15:49;;;;;;;;;;;7.10;99.90;;;;;;5069891;28;19927;-78
2022/12/06 14:18:27;;;;;;;;;;;7.00;99.90;;;;;;5055363;28;19924;-83
2022/12/06 14:20:55;;;;;;;;;;;7.00;99.90;;;;;;5061030;28;19920;-84
2022/12/06 14:23:21;;;;;;;;;;;7.00;99.90;;;;;;5065669;28;19930;-80
2022/12/06 14:25:46;;;;;;;;;;;6.90;99.90;;;;;;5057948;28;19928;-79
2022/12/06 14:28:12;;;;;;;;;;;6.90;99.90;;;;;;5062251;28;20008;-84
2022/12/06 14:30:38;;;;;;;;;;;7.60;99.90;;;;;;5062588;28;19921;-83
2022/12/06 14:33:15;;;;;;;;;;;7.70;99.90;;;;;;5061009;28;19931;-82
2022/12/06 14:35:47;;;;;;;;;;;6.90;99.90;;;;;;5063949;28;19928;-85
2022/12/06 14:38:21;;;;;;;;;;;7.60;99.90;;;;;;5061899;28;20331;-88
2022/12/06 14:43:31;;;;;;;;;;;8.70;99.90;;;;;;5063889;28;19924;-87
2022/12/06 14:46:01;;;;;;;;;;;6.90;99.90;;;;;;5061245;28;19932;-84
2022/12/06 14:50:22;;;;;;;;;;;6.90;99.90;;;;;;5060974;28;20368;-78
2022/12/06 14:51:23;;;;;;;;;;;6.90;99.90;;;;;;5057861;28;19924;-85
2022/12/06 14:53:49;;;;;;;;;;;7.00;99.90;;;;;;5058998;28;19920;-82
2022/12/06 14:56:31;;;;;;;;;;;8.10;99.90;;;;;;5056503;28;19928;-84
2022/12/06 14:58:58;;;;;;;;;;;7.00;99.90;;;;;;5062023;28;20371;-78
2022/12/06 15:01:27;;;;;;;;;;;7.00;99.90;;;;;;5053480;28;20434;-89
2022/12/06 15:04:08;;;;;;;;;;;7.00;99.90;;;;;;5064150;28;19978;-88
2022/12/06 15:06:34;;;;;;;;;;;6.90;99.90;;;;;;5057654;28;20023;-85
2022/12/06 15:08:59;;;;;;;;;;;7.10;99.90;;;;;;5061834;28;19921;-82
2022/12/06 15:14:14;;;;;;;;;;;6.80;99.90;;;;;;5061168;28;19924;-85
2022/12/06 15:16:41;;;;;;;;;;;7.60;99.90;;;;;;5058435;28;19928;-83